sensor_id;sensor_type;location;lat;lon;timestamp;P1;durP1;ratioP1;P2;durP2;ratioP2
52306;SDS011;38249;48.920;12.882;2022-12-26T00:01:31;3.55;;;2.30;;
52306;SDS011;38249;48.920;12.882;2022-12-26T00:03:59;2.78;;;2.35;;
52306;SDS011;38249;48.920;12.882;2022-12-26T00:06:28;4.63;;;2.65;;
52306;SDS011;38249;48.920;12.882;2022-12-26T00:08:55;3.63;;;2.55;;
52306;SDS011;38249;48.920;12.882;2022-12-26T00:11:23;4.95;;;2.83;;
52306;SDS011;38249;48.920;12.882;2022-12-26T00:13:52;4.30;;;3.00;;
52306;SDS011;38249;48.920;12.882;2022-12-26T00:16:19;4.18;;;2.75;;
52306;SDS011;38249;48.920;12.882;2022-12-26T00:18:47;3.47;;;2.85;;
52306;SDS011;38249;48.920;12.882;2022-12-26T00:21:14;3.65;;;2.65;;
52306;SDS011;38249;48.920;12.882;2022-12-26T00:23:43;3.72;;;2.90;;
52306;SDS011;38249;48.920;12.882;2022-12-26T00:26:11;4.38;;;2.50;;
52306;SDS011;38249;48.920;12.882;2022-12-26T00:28:38;5.15;;;2.53;;
52306;SDS011;38249;48.920;12.882;2022-12-26T00:31:05;3.40;;;2.40;;
52306;SDS011;38249;48.920;12.882;2022-12-26T00:33:33;4.00;;;2.50;;
52306;SDS011;38249;48.920;12.882;2022-12-26T00:36:00;4.22;;;2.72;;
52306;SDS011;38249;48.920;12.882;2022-12-26T00:38:28;3.08;;;2.67;;
52306;SDS011;38249;48.920;12.882;2022-12-26T00:40:56;6.47;;;3.65;;
52306;SDS011;38249;48.920;12.882;2022-12-26T00:43:22;4.68;;;3.17;;
52306;SDS011;38249;48.920;12.882;2022-12-26T00:45:49;10.25;;;2.88;;
52306;SDS011;38249;48.920;12.882;2022-12-26T00:48:15;4.15;;;2.50;;
52306;SDS011;38249;48.920;12.882;2022-12-26T00:50:42;3.65;;;2.83;;
52306;SDS011;38249;48.920;12.882;2022-12-26T00:53:08;3.90;;;2.30;;
52306;SDS011;38249;48.920;12.882;2022-12-26T00:55:35;5.07;;;2.78;;
52306;SDS011;38249;48.920;12.882;2022-12-26T00:58:03;4.32;;;2.78;;
52306;SDS011;38249;48.920;12.882;2022-12-26T01:00:29;3.05;;;2.75;;
52306;SDS011;38249;48.920;12.882;2022-12-26T01:02:57;2.85;;;2.53;;
52306;SDS011;38249;48.920;12.882;2022-12-26T01:05:23;4.78;;;2.88;;
52306;SDS011;38249;48.920;12.882;2022-12-26T01:07:50;2.75;;;2.40;;
52306;SDS011;38249;48.920;12.882;2022-12-26T01:10:16;2.83;;;2.42;;
52306;SDS011;38249;48.920;12.882;2022-12-26T01:12:43;3.88;;;2.70;;
52306;SDS011;38249;48.920;12.882;2022-12-26T01:15:10;4.68;;;2.88;;
52306;SDS011;38249;48.920;12.882;2022-12-26T01:17:37;3.38;;;2.45;;
52306;SDS011;38249;48.920;12.882;2022-12-26T01:20:04;3.83;;;2.50;;
52306;SDS011;38249;48.920;12.882;2022-12-26T01:22:31;2.50;;;2.30;;
52306;SDS011;38249;48.920;12.882;2022-12-26T01:24:57;3.53;;;2.83;;
52306;SDS011;38249;48.920;12.882;2022-12-26T01:27:25;7.10;;;3.22;;
52306;SDS011;38249;48.920;12.882;2022-12-26T01:29:51;4.28;;;3.08;;
52306;SDS011;38249;48.920;12.882;2022-12-26T01:32:19;4.53;;;2.72;;
52306;SDS011;38249;48.920;12.882;2022-12-26T01:34:46;3.35;;;2.53;;
52306;SDS011;38249;48.920;12.882;2022-12-26T01:37:13;3.35;;;2.50;;
52306;SDS011;38249;48.920;12.882;2022-12-26T01:39:40;2.50;;;2.30;;
52306;SDS011;38249;48.920;12.882;2022-12-26T01:42:09;3.90;;;2.25;;
52306;SDS011;38249;48.920;12.882;2022-12-26T01:44:55;4.40;;;2.63;;
52306;SDS011;38249;48.920;12.882;2022-12-26T01:47:36;3.03;;;2.72;;
52306;SDS011;38249;48.920;12.882;2022-12-26T01:50:13;3.95;;;2.70;;
52306;SDS011;38249;48.920;12.882;2022-12-26T01:52:49;4.68;;;3.00;;
52306;SDS011;38249;48.920;12.882;2022-12-26T01:55:16;3.90;;;2.90;;
52306;SDS011;38249;48.920;12.882;2022-12-26T01:57:46;6.20;;;3.08;;
52306;SDS011;38249;48.920;12.882;2022-12-26T02:00:19;3.75;;;3.17;;
52306;SDS011;38249;48.920;12.882;2022-12-26T02:02:46;4.53;;;3.08;;
52306;SDS011;38249;48.920;12.882;2022-12-26T02:05:31;3.03;;;2.72;;
52306;SDS011;38249;48.920;12.882;2022-12-26T02:08:02;3.88;;;2.47;;
52306;SDS011;38249;48.920;12.882;2022-12-26T02:10:34;4.32;;;2.78;;
52306;SDS011;38249;48.920;12.882;2022-12-26T02:13:04;6.10;;;3.45;;
52306;SDS011;38249;48.920;12.882;2022-12-26T02:15:31;8.13;;;4.50;;
52306;SDS011;38249;48.920;12.882;2022-12-26T02:17:59;5.30;;;3.40;;
52306;SDS011;38249;48.920;12.882;2022-12-26T02:20:26;3.35;;;2.63;;
52306;SDS011;38249;48.920;12.882;2022-12-26T02:23:12;3.35;;;2.78;;
52306;SDS011;38249;48.920;12.882;2022-12-26T02:32:10;3.28;;;2.92;;
52306;SDS011;38249;48.920;12.882;2022-12-26T02:34:47;3.35;;;2.78;;
52306;SDS011;38249;48.920;12.882;2022-12-26T02:37:23;4.00;;;2.70;;
52306;SDS011;38249;48.920;12.882;2022-12-26T02:40:06;2.63;;;2.40;;
52306;SDS011;38249;48.920;12.882;2022-12-26T02:42:47;4.88;;;2.72;;
52306;SDS011;38249;48.920;12.882;2022-12-26T02:45:24;3.50;;;2.42;;
52306;SDS011;38249;48.920;12.882;2022-12-26T02:48:18;2.97;;;2.60;;
52306;SDS011;38249;48.920;12.882;2022-12-26T02:50:57;2.80;;;2.35;;
52306;SDS011;38249;48.920;12.882;2022-12-26T02:53:52;6.50;;;3.03;;
52306;SDS011;38249;48.920;12.882;2022-12-26T02:56:45;4.10;;;2.83;;
52306;SDS011;38249;48.920;12.882;2022-12-26T02:59:37;2.80;;;2.42;;
52306;SDS011;38249;48.920;12.882;2022-12-26T03:02:29;2.97;;;2.67;;
52306;SDS011;38249;48.920;12.882;2022-12-26T03:05:20;2.97;;;2.40;;
52306;SDS011;38249;48.920;12.882;2022-12-26T03:08:11;4.03;;;2.70;;
52306;SDS011;38249;48.920;12.882;2022-12-26T03:11:03;3.70;;;2.30;;
52306;SDS011;38249;48.920;12.882;2022-12-26T03:16:15;4.13;;;2.35;;
52306;SDS011;38249;48.920;12.882;2022-12-26T03:19:00;2.67;;;2.47;;
52306;SDS011;38249;48.920;12.882;2022-12-26T03:21:33;4.30;;;2.60;;
52306;SDS011;38249;48.920;12.882;2022-12-26T03:24:03;3.42;;;3.00;;
52306;SDS011;38249;48.920;12.882;2022-12-26T03:26:31;5.75;;;2.97;;
52306;SDS011;38249;48.920;12.882;2022-12-26T03:29:07;3.58;;;3.00;;
52306;SDS011;38249;48.920;12.882;2022-12-26T03:31:53;3.63;;;2.45;;
52306;SDS011;38249;48.920;12.882;2022-12-26T03:34:19;4.35;;;2.92;;
52306;SDS011;38249;48.920;12.882;2022-12-26T03:39:57;4.28;;;2.83;;
52306;SDS011;38249;48.920;12.882;2022-12-26T03:45:40;4.45;;;2.75;;
52306;SDS011;38249;48.920;12.882;2022-12-26T03:48:34;3.97;;;3.00;;
52306;SDS011;38249;48.920;12.882;2022-12-26T03:51:29;5.85;;;2.90;;
52306;SDS011;38249;48.920;12.882;2022-12-26T03:54:30;3.53;;;3.00;;
52306;SDS011;38249;48.920;12.882;2022-12-26T03:57:20;2.92;;;2.50;;
52306;SDS011;38249;48.920;12.882;2022-12-26T04:00:13;9.43;;;3.13;;
52306;SDS011;38249;48.920;12.882;2022-12-26T04:02:58;4.18;;;2.90;;
52306;SDS011;38249;48.920;12.882;2022-12-26T04:05:48;5.00;;;2.85;;
52306;SDS011;38249;48.920;12.882;2022-12-26T04:08:37;4.88;;;2.67;;
52306;SDS011;38249;48.920;12.882;2022-12-26T04:11:27;5.50;;;2.80;;
52306;SDS011;38249;48.920;12.882;2022-12-26T04:14:12;3.90;;;2.88;;
52306;SDS011;38249;48.920;12.882;2022-12-26T04:17:15;5.50;;;3.50;;
52306;SDS011;38249;48.920;12.882;2022-12-26T04:20:07;4.80;;;2.60;;
52306;SDS011;38249;48.920;12.882;2022-12-26T04:22:41;4.33;;;2.97;;
52306;SDS011;38249;48.920;12.882;2022-12-26T04:25:32;4.85;;;3.03;;
52306;SDS011;38249;48.920;12.882;2022-12-26T04:28:22;3.85;;;3.10;;
52306;SDS011;38249;48.920;12.882;2022-12-26T04:31:07;7.13;;;2.90;;
52306;SDS011;38249;48.920;12.882;2022-12-26T04:33:57;4.57;;;2.78;;
52306;SDS011;38249;48.920;12.882;2022-12-26T04:36:44;3.60;;;2.88;;
52306;SDS011;38249;48.920;12.882;2022-12-26T04:39:33;4.55;;;3.20;;
52306;SDS011;38249;48.920;12.882;2022-12-26T04:42:19;4.93;;;3.15;;
52306;SDS011;38249;48.920;12.882;2022-12-26T04:45:06;8.75;;;5.45;;
52306;SDS011;38249;48.920;12.882;2022-12-26T04:47:35;5.80;;;3.30;;
52306;SDS011;38249;48.920;12.882;2022-12-26T04:50:03;3.25;;;2.95;;
52306;SDS011;38249;48.920;12.882;2022-12-26T04:52:36;5.15;;;3.00;;
52306;SDS011;38249;48.920;12.882;2022-12-26T04:55:23;3.58;;;2.95;;
52306;SDS011;38249;48.920;12.882;2022-12-26T04:57:49;5.10;;;3.08;;
52306;SDS011;38249;48.920;12.882;2022-12-26T05:00:17;4.85;;;3.15;;
52306;SDS011;38249;48.920;12.882;2022-12-26T05:02:44;3.83;;;3.03;;
52306;SDS011;38249;48.920;12.882;2022-12-26T05:05:28;5.18;;;3.90;;
52306;SDS011;38249;48.920;12.882;2022-12-26T05:08:19;3.80;;;3.05;;
52306;SDS011;38249;48.920;12.882;2022-12-26T05:11:07;4.25;;;2.88;;
52306;SDS011;38249;48.920;12.882;2022-12-26T05:13:33;4.65;;;3.30;;
52306;SDS011;38249;48.920;12.882;2022-12-26T05:16:01;5.07;;;3.03;;
52306;SDS011;38249;48.920;12.882;2022-12-26T05:18:42;5.70;;;2.95;;
52306;SDS011;38249;48.920;12.882;2022-12-26T05:21:26;4.50;;;2.97;;
52306;SDS011;38249;48.920;12.882;2022-12-26T05:24:10;4.57;;;3.28;;
52306;SDS011;38249;48.920;12.882;2022-12-26T05:26:54;4.85;;;3.13;;
52306;SDS011;38249;48.920;12.882;2022-12-26T05:29:38;12.25;;;8.57;;
52306;SDS011;38249;48.920;12.882;2022-12-26T05:32:06;13.23;;;9.60;;
52306;SDS011;38249;48.920;12.882;2022-12-26T05:34:33;41.17;;;27.17;;
52306;SDS011;38249;48.920;12.882;2022-12-26T05:36:58;11.55;;;8.15;;
52306;SDS011;38249;48.920;12.882;2022-12-26T05:39:25;8.27;;;4.70;;
52306;SDS011;38249;48.920;12.882;2022-12-26T05:41:51;6.75;;;4.20;;
52306;SDS011;38249;48.920;12.882;2022-12-26T05:44:18;6.65;;;5.05;;
52306;SDS011;38249;48.920;12.882;2022-12-26T05:46:44;8.80;;;5.40;;
52306;SDS011;38249;48.920;12.882;2022-12-26T05:49:13;6.55;;;4.70;;
52306;SDS011;38249;48.920;12.882;2022-12-26T05:51:39;12.27;;;9.20;;
52306;SDS011;38249;48.920;12.882;2022-12-26T05:54:06;9.23;;;5.65;;
52306;SDS011;38249;48.920;12.882;2022-12-26T05:56:32;4.85;;;3.30;;
52306;SDS011;38249;48.920;12.882;2022-12-26T05:58:59;3.58;;;3.13;;
52306;SDS011;38249;48.920;12.882;2022-12-26T06:01:26;7.30;;;4.68;;
52306;SDS011;38249;48.920;12.882;2022-12-26T06:03:55;6.63;;;4.18;;
52306;SDS011;38249;48.920;12.882;2022-12-26T06:06:25;4.22;;;2.88;;
52306;SDS011;38249;48.920;12.882;2022-12-26T06:08:53;3.88;;;3.20;;
52306;SDS011;38249;48.920;12.882;2022-12-26T06:11:21;4.32;;;3.13;;
52306;SDS011;38249;48.920;12.882;2022-12-26T06:13:50;4.55;;;2.58;;
52306;SDS011;38249;48.920;12.882;2022-12-26T06:16:16;3.28;;;2.70;;
52306;SDS011;38249;48.920;12.882;2022-12-26T06:18:43;3.97;;;3.30;;
52306;SDS011;38249;48.920;12.882;2022-12-26T06:21:11;5.75;;;3.92;;
52306;SDS011;38249;48.920;12.882;2022-12-26T06:23:40;4.40;;;3.55;;
52306;SDS011;38249;48.920;12.882;2022-12-26T06:26:07;6.07;;;4.20;;
52306;SDS011;38249;48.920;12.882;2022-12-26T06:28:36;5.55;;;3.90;;
52306;SDS011;38249;48.920;12.882;2022-12-26T06:31:05;4.57;;;3.92;;
52306;SDS011;38249;48.920;12.882;2022-12-26T06:33:33;5.22;;;3.90;;
52306;SDS011;38249;48.920;12.882;2022-12-26T06:36:03;4.00;;;3.60;;
52306;SDS011;38249;48.920;12.882;2022-12-26T06:38:31;6.65;;;3.60;;
52306;SDS011;38249;48.920;12.882;2022-12-26T06:40:59;10.30;;;6.93;;
52306;SDS011;38249;48.920;12.882;2022-12-26T06:43:25;25.10;;;16.80;;
52306;SDS011;38249;48.920;12.882;2022-12-26T06:45:55;11.90;;;8.70;;
52306;SDS011;38249;48.920;12.882;2022-12-26T06:48:22;3.75;;;3.45;;
52306;SDS011;38249;48.920;12.882;2022-12-26T06:50:49;8.52;;;5.47;;
52306;SDS011;38249;48.920;12.882;2022-12-26T06:53:18;6.63;;;4.38;;
52306;SDS011;38249;48.920;12.882;2022-12-26T06:55:45;3.65;;;3.20;;
52306;SDS011;38249;48.920;12.882;2022-12-26T06:58:12;14.70;;;13.30;;
52306;SDS011;38249;48.920;12.882;2022-12-26T07:00:39;9.88;;;8.55;;
52306;SDS011;38249;48.920;12.882;2022-12-26T07:03:05;6.60;;;4.25;;
52306;SDS011;38249;48.920;12.882;2022-12-26T07:05:34;7.03;;;4.38;;
52306;SDS011;38249;48.920;12.882;2022-12-26T07:08:00;7.00;;;5.93;;
52306;SDS011;38249;48.920;12.882;2022-12-26T07:10:27;6.78;;;5.63;;
52306;SDS011;38249;48.920;12.882;2022-12-26T07:12:54;9.73;;;5.53;;
52306;SDS011;38249;48.920;12.882;2022-12-26T07:15:22;7.63;;;5.90;;
52306;SDS011;38249;48.920;12.882;2022-12-26T07:17:48;5.93;;;5.18;;
52306;SDS011;38249;48.920;12.882;2022-12-26T07:20:14;6.88;;;5.88;;
52306;SDS011;38249;48.920;12.882;2022-12-26T07:22:41;9.38;;;6.45;;
52306;SDS011;38249;48.920;12.882;2022-12-26T07:25:08;21.98;;;11.38;;
52306;SDS011;38249;48.920;12.882;2022-12-26T07:27:34;10.55;;;6.70;;
52306;SDS011;38249;48.920;12.882;2022-12-26T07:30:01;14.30;;;8.82;;
52306;SDS011;38249;48.920;12.882;2022-12-26T07:32:29;12.55;;;7.93;;
52306;SDS011;38249;48.920;12.882;2022-12-26T07:34:55;10.73;;;6.60;;
52306;SDS011;38249;48.920;12.882;2022-12-26T07:37:22;8.55;;;6.15;;
52306;SDS011;38249;48.920;12.882;2022-12-26T07:39:48;14.02;;;9.48;;
52306;SDS011;38249;48.920;12.882;2022-12-26T07:42:14;15.68;;;10.48;;
52306;SDS011;38249;48.920;12.882;2022-12-26T07:44:41;8.30;;;5.43;;
52306;SDS011;38249;48.920;12.882;2022-12-26T07:47:07;6.65;;;5.20;;
52306;SDS011;38249;48.920;12.882;2022-12-26T07:49:35;9.48;;;7.20;;
52306;SDS011;38249;48.920;12.882;2022-12-26T07:52:02;9.02;;;6.35;;
52306;SDS011;38249;48.920;12.882;2022-12-26T07:54:29;8.93;;;7.43;;
52306;SDS011;38249;48.920;12.882;2022-12-26T07:56:56;11.45;;;7.75;;
52306;SDS011;38249;48.920;12.882;2022-12-26T07:59:23;6.60;;;5.57;;
52306;SDS011;38249;48.920;12.882;2022-12-26T08:01:49;8.73;;;6.57;;
52306;SDS011;38249;48.920;12.882;2022-12-26T08:04:16;10.02;;;8.00;;
52306;SDS011;38249;48.920;12.882;2022-12-26T08:06:45;7.35;;;5.78;;
52306;SDS011;38249;48.920;12.882;2022-12-26T08:09:12;9.13;;;7.20;;
52306;SDS011;38249;48.920;12.882;2022-12-26T08:11:40;7.93;;;6.70;;
52306;SDS011;38249;48.920;12.882;2022-12-26T08:14:08;7.55;;;5.72;;
52306;SDS011;38249;48.920;12.882;2022-12-26T08:16:35;6.32;;;5.72;;
52306;SDS011;38249;48.920;12.882;2022-12-26T08:19:02;5.15;;;4.65;;
52306;SDS011;38249;48.920;12.882;2022-12-26T08:21:29;5.65;;;5.15;;
52306;SDS011;38249;48.920;12.882;2022-12-26T08:23:57;5.13;;;4.60;;
52306;SDS011;38249;48.920;12.882;2022-12-26T08:26:24;6.80;;;4.25;;
52306;SDS011;38249;48.920;12.882;2022-12-26T08:28:50;9.63;;;6.28;;
52306;SDS011;38249;48.920;12.882;2022-12-26T08:31:18;9.85;;;6.13;;
52306;SDS011;38249;48.920;12.882;2022-12-26T08:33:45;6.18;;;4.35;;
52306;SDS011;38249;48.920;12.882;2022-12-26T08:36:12;5.53;;;4.20;;
52306;SDS011;38249;48.920;12.882;2022-12-26T08:38:40;6.93;;;4.72;;
52306;SDS011;38249;48.920;12.882;2022-12-26T08:41:09;18.52;;;14.35;;
52306;SDS011;38249;48.920;12.882;2022-12-26T08:43:36;20.38;;;15.10;;
52306;SDS011;38249;48.920;12.882;2022-12-26T08:48:57;27.38;;;15.95;;
52306;SDS011;38249;48.920;12.882;2022-12-26T08:51:23;23.63;;;14.05;;
52306;SDS011;38249;48.920;12.882;2022-12-26T08:53:51;19.38;;;12.73;;
52306;SDS011;38249;48.920;12.882;2022-12-26T08:56:22;25.77;;;15.52;;
52306;SDS011;38249;48.920;12.882;2022-12-26T08:58:50;17.27;;;11.20;;
52306;SDS011;38249;48.920;12.882;2022-12-26T09:01:17;8.95;;;7.05;;
52306;SDS011;38249;48.920;12.882;2022-12-26T09:03:44;9.35;;;6.72;;
52306;SDS011;38249;48.920;12.882;2022-12-26T09:06:12;6.28;;;5.47;;
52306;SDS011;38249;48.920;12.882;2022-12-26T09:08:40;5.93;;;5.30;;
52306;SDS011;38249;48.920;12.882;2022-12-26T09:11:09;12.00;;;9.68;;
52306;SDS011;38249;48.920;12.882;2022-12-26T09:13:38;10.98;;;9.32;;
52306;SDS011;38249;48.920;12.882;2022-12-26T09:16:06;7.07;;;5.85;;
52306;SDS011;38249;48.920;12.882;2022-12-26T09:18:34;7.78;;;6.28;;
52306;SDS011;38249;48.920;12.882;2022-12-26T09:21:02;11.98;;;10.32;;
52306;SDS011;38249;48.920;12.882;2022-12-26T09:23:30;30.67;;;23.17;;
52306;SDS011;38249;48.920;12.882;2022-12-26T09:26:02;20.55;;;14.32;;
52306;SDS011;38249;48.920;12.882;2022-12-26T09:28:30;24.67;;;18.65;;
52306;SDS011;38249;48.920;12.882;2022-12-26T09:30:59;44.75;;;31.17;;
52306;SDS011;38249;48.920;12.882;2022-12-26T09:33:26;22.73;;;16.00;;
52306;SDS011;38249;48.920;12.882;2022-12-26T09:35:53;16.20;;;12.02;;
52306;SDS011;38249;48.920;12.882;2022-12-26T09:38:19;12.32;;;9.90;;
52306;SDS011;38249;48.920;12.882;2022-12-26T09:40:48;14.13;;;10.43;;
52306;SDS011;38249;48.920;12.882;2022-12-26T09:43:32;11.93;;;8.82;;
52306;SDS011;38249;48.920;12.882;2022-12-26T09:46:12;11.68;;;8.43;;
52306;SDS011;38249;48.920;12.882;2022-12-26T09:48:44;9.82;;;8.43;;
52306;SDS011;38249;48.920;12.882;2022-12-26T09:51:18;9.00;;;7.82;;
52306;SDS011;38249;48.920;12.882;2022-12-26T09:53:45;12.43;;;9.80;;
52306;SDS011;38249;48.920;12.882;2022-12-26T09:56:12;8.05;;;6.13;;
52306;SDS011;38249;48.920;12.882;2022-12-26T09:58:43;5.53;;;5.03;;
52306;SDS011;38249;48.920;12.882;2022-12-26T10:01:14;7.07;;;4.57;;
52306;SDS011;38249;48.920;12.882;2022-12-26T10:03:45;7.22;;;5.38;;
52306;SDS011;38249;48.920;12.882;2022-12-26T10:06:15;12.13;;;7.53;;
52306;SDS011;38249;48.920;12.882;2022-12-26T10:08:53;7.68;;;5.63;;
52306;SDS011;38249;48.920;12.882;2022-12-26T10:11:33;8.32;;;6.57;;
52306;SDS011;38249;48.920;12.882;2022-12-26T10:14:08;11.60;;;8.18;;
52306;SDS011;38249;48.920;12.882;2022-12-26T10:16:53;10.98;;;8.93;;
52306;SDS011;38249;48.920;12.882;2022-12-26T10:19:32;9.02;;;6.05;;
52306;SDS011;38249;48.920;12.882;2022-12-26T10:22:16;7.05;;;5.38;;
52306;SDS011;38249;48.920;12.882;2022-12-26T10:24:55;8.10;;;5.30;;
52306;SDS011;38249;48.920;12.882;2022-12-26T10:27:25;7.80;;;6.10;;
52306;SDS011;38249;48.920;12.882;2022-12-26T10:29:55;8.25;;;7.00;;
52306;SDS011;38249;48.920;12.882;2022-12-26T10:32:27;8.00;;;5.80;;
52306;SDS011;38249;48.920;12.882;2022-12-26T10:34:58;10.32;;;5.50;;
52306;SDS011;38249;48.920;12.882;2022-12-26T10:37:26;7.38;;;5.63;;
52306;SDS011;38249;48.920;12.882;2022-12-26T10:39:57;8.73;;;6.35;;
52306;SDS011;38249;48.920;12.882;2022-12-26T10:42:28;8.00;;;6.32;;
52306;SDS011;38249;48.920;12.882;2022-12-26T10:44:58;8.82;;;6.72;;
52306;SDS011;38249;48.920;12.882;2022-12-26T10:47:27;8.23;;;6.35;;
52306;SDS011;38249;48.920;12.882;2022-12-26T10:49:58;7.03;;;5.70;;
52306;SDS011;38249;48.920;12.882;2022-12-26T10:52:26;9.43;;;7.32;;
52306;SDS011;38249;48.920;12.882;2022-12-26T10:54:56;7.97;;;6.72;;
52306;SDS011;38249;48.920;12.882;2022-12-26T10:57:25;7.90;;;6.57;;
52306;SDS011;38249;48.920;12.882;2022-12-26T10:59:53;8.00;;;6.25;;
52306;SDS011;38249;48.920;12.882;2022-12-26T11:02:21;7.25;;;6.10;;
52306;SDS011;38249;48.920;12.882;2022-12-26T11:04:58;8.73;;;6.25;;
52306;SDS011;38249;48.920;12.882;2022-12-26T11:07:31;7.10;;;6.25;;
52306;SDS011;38249;48.920;12.882;2022-12-26T11:10:00;7.45;;;5.80;;
52306;SDS011;38249;48.920;12.882;2022-12-26T11:12:30;7.85;;;6.10;;
52306;SDS011;38249;48.920;12.882;2022-12-26T11:15:06;7.82;;;6.20;;
52306;SDS011;38249;48.920;12.882;2022-12-26T11:17:44;8.25;;;6.13;;
52306;SDS011;38249;48.920;12.882;2022-12-26T11:20:23;8.38;;;6.50;;
52306;SDS011;38249;48.920;12.882;2022-12-26T11:22:53;8.82;;;6.28;;
52306;SDS011;38249;48.920;12.882;2022-12-26T11:25:21;9.98;;;7.15;;
52306;SDS011;38249;48.920;12.882;2022-12-26T11:27:49;8.15;;;7.10;;
52306;SDS011;38249;48.920;12.882;2022-12-26T11:30:21;6.60;;;5.35;;
52306;SDS011;38249;48.920;12.882;2022-12-26T11:33:02;7.07;;;6.18;;
52306;SDS011;38249;48.920;12.882;2022-12-26T11:35:33;6.30;;;5.70;;
52306;SDS011;38249;48.920;12.882;2022-12-26T11:38:02;6.88;;;5.72;;
52306;SDS011;38249;48.920;12.882;2022-12-26T11:40:32;8.38;;;5.38;;
52306;SDS011;38249;48.920;12.882;2022-12-26T11:43:02;6.85;;;5.05;;
52306;SDS011;38249;48.920;12.882;2022-12-26T11:45:35;6.55;;;5.25;;
52306;SDS011;38249;48.920;12.882;2022-12-26T11:50:44;8.93;;;5.25;;
52306;SDS011;38249;48.920;12.882;2022-12-26T11:53:14;10.43;;;6.43;;
52306;SDS011;38249;48.920;12.882;2022-12-26T11:55:43;8.00;;;6.45;;
52306;SDS011;38249;48.920;12.882;2022-12-26T11:58:17;10.15;;;6.40;;
52306;SDS011;38249;48.920;12.882;2022-12-26T12:03:36;13.07;;;9.70;;
52306;SDS011;38249;48.920;12.882;2022-12-26T12:06:12;11.73;;;7.65;;
52306;SDS011;38249;48.920;12.882;2022-12-26T12:08:49;10.30;;;7.03;;
52306;SDS011;38249;48.920;12.882;2022-12-26T12:11:24;48.92;;;33.42;;
52306;SDS011;38249;48.920;12.882;2022-12-26T12:14:00;22.20;;;16.38;;
52306;SDS011;38249;48.920;12.882;2022-12-26T12:16:51;9.75;;;6.90;;
52306;SDS011;38249;48.920;12.882;2022-12-26T12:19:26;13.25;;;10.15;;
52306;SDS011;38249;48.920;12.882;2022-12-26T12:22:09;9.30;;;7.03;;
52306;SDS011;38249;48.920;12.882;2022-12-26T12:24:53;8.80;;;7.82;;
52306;SDS011;38249;48.920;12.882;2022-12-26T12:27:38;10.63;;;7.70;;
52306;SDS011;38249;48.920;12.882;2022-12-26T12:30:14;8.75;;;7.85;;
52306;SDS011;38249;48.920;12.882;2022-12-26T12:35:44;10.25;;;7.47;;
52306;SDS011;38249;48.920;12.882;2022-12-26T12:38:31;10.05;;;8.50;;
52306;SDS011;38249;48.920;12.882;2022-12-26T12:41:13;11.18;;;8.20;;
52306;SDS011;38249;48.920;12.882;2022-12-26T12:43:49;7.40;;;5.72;;
52306;SDS011;38249;48.920;12.882;2022-12-26T12:46:22;15.43;;;10.23;;
52306;SDS011;38249;48.920;12.882;2022-12-26T12:49:02;12.57;;;10.32;;
52306;SDS011;38249;48.920;12.882;2022-12-26T12:51:43;15.73;;;10.27;;
52306;SDS011;38249;48.920;12.882;2022-12-26T12:57:11;13.82;;;9.77;;
52306;SDS011;38249;48.920;12.882;2022-12-26T12:59:48;13.48;;;12.00;;
52306;SDS011;38249;48.920;12.882;2022-12-26T13:02:25;18.67;;;12.48;;
52306;SDS011;38249;48.920;12.882;2022-12-26T13:04:58;14.63;;;11.00;;
52306;SDS011;38249;48.920;12.882;2022-12-26T13:07:31;14.25;;;11.32;;
52306;SDS011;38249;48.920;12.882;2022-12-26T13:10:05;14.57;;;10.55;;
52306;SDS011;38249;48.920;12.882;2022-12-26T13:12:41;12.38;;;9.80;;
52306;SDS011;38249;48.920;12.882;2022-12-26T13:15:14;11.15;;;9.80;;
52306;SDS011;38249;48.920;12.882;2022-12-26T13:17:50;13.77;;;10.77;;
52306;SDS011;38249;48.920;12.882;2022-12-26T13:20:22;12.45;;;9.98;;
52306;SDS011;38249;48.920;12.882;2022-12-26T13:22:54;13.27;;;10.15;;
52306;SDS011;38249;48.920;12.882;2022-12-26T13:25:45;12.02;;;8.20;;
52306;SDS011;38249;48.920;12.882;2022-12-26T13:28:16;8.57;;;6.22;;
52306;SDS011;38249;48.920;12.882;2022-12-26T13:30:50;7.22;;;6.15;;
52306;SDS011;38249;48.920;12.882;2022-12-26T13:33:18;4.18;;;3.78;;
52306;SDS011;38249;48.920;12.882;2022-12-26T13:35:46;4.80;;;4.30;;
52306;SDS011;38249;48.920;12.882;2022-12-26T13:38:17;5.45;;;4.88;;
52306;SDS011;38249;48.920;12.882;2022-12-26T13:40:46;16.25;;;10.48;;
52306;SDS011;38249;48.920;12.882;2022-12-26T13:43:16;9.10;;;8.07;;
52306;SDS011;38249;48.920;12.882;2022-12-26T13:46:03;7.18;;;5.63;;
52306;SDS011;38249;48.920;12.882;2022-12-26T13:48:45;9.65;;;8.65;;
52306;SDS011;38249;48.920;12.882;2022-12-26T13:51:42;11.85;;;8.70;;
52306;SDS011;38249;48.920;12.882;2022-12-26T13:54:12;14.23;;;10.02;;
52306;SDS011;38249;48.920;12.882;2022-12-26T13:57:06;23.77;;;17.27;;
52306;SDS011;38249;48.920;12.882;2022-12-26T13:59:57;10.30;;;9.25;;
52306;SDS011;38249;48.920;12.882;2022-12-26T14:05:51;13.07;;;10.63;;
52306;SDS011;38249;48.920;12.882;2022-12-26T14:08:39;9.73;;;8.10;;
52306;SDS011;38249;48.920;12.882;2022-12-26T14:11:24;9.32;;;7.53;;
52306;SDS011;38249;48.920;12.882;2022-12-26T14:14:06;7.95;;;6.75;;
52306;SDS011;38249;48.920;12.882;2022-12-26T14:16:43;12.63;;;8.02;;
52306;SDS011;38249;48.920;12.882;2022-12-26T14:19:18;8.02;;;6.05;;
52306;SDS011;38249;48.920;12.882;2022-12-26T14:22:00;9.40;;;6.25;;
52306;SDS011;38249;48.920;12.882;2022-12-26T14:24:35;6.60;;;5.95;;
52306;SDS011;38249;48.920;12.882;2022-12-26T14:27:17;7.65;;;6.85;;
52306;SDS011;38249;48.920;12.882;2022-12-26T14:29:55;8.45;;;6.28;;
52306;SDS011;38249;48.920;12.882;2022-12-26T14:32:33;8.23;;;6.90;;
52306;SDS011;38249;48.920;12.882;2022-12-26T14:35:14;10.45;;;7.22;;
52306;SDS011;38249;48.920;12.882;2022-12-26T14:37:51;7.65;;;5.93;;
52306;SDS011;38249;48.920;12.882;2022-12-26T14:40:26;7.97;;;6.57;;
52306;SDS011;38249;48.920;12.882;2022-12-26T14:43:02;35.53;;;22.27;;
52306;SDS011;38249;48.920;12.882;2022-12-26T14:45:43;34.80;;;23.85;;
52306;SDS011;38249;48.920;12.882;2022-12-26T14:51:27;11.02;;;9.15;;
52306;SDS011;38249;48.920;12.882;2022-12-26T14:57:00;9.10;;;7.83;;
52306;SDS011;38249;48.920;12.882;2022-12-26T15:00:12;10.30;;;8.20;;
52306;SDS011;38249;48.920;12.882;2022-12-26T15:03:09;12.90;;;9.98;;
52306;SDS011;38249;48.920;12.882;2022-12-26T15:05:50;17.13;;;13.70;;
52306;SDS011;38249;48.920;12.882;2022-12-26T15:08:31;21.05;;;17.48;;
52306;SDS011;38249;48.920;12.882;2022-12-26T15:11:22;18.98;;;15.23;;
52306;SDS011;38249;48.920;12.882;2022-12-26T15:14:18;15.68;;;12.05;;
52306;SDS011;38249;48.920;12.882;2022-12-26T15:17:03;11.32;;;9.02;;
52306;SDS011;38249;48.920;12.882;2022-12-26T15:22:48;22.70;;;20.65;;
52306;SDS011;38249;48.920;12.882;2022-12-26T15:25:43;9.77;;;8.77;;
52306;SDS011;38249;48.920;12.882;2022-12-26T15:28:40;10.05;;;9.10;;
52306;SDS011;38249;48.920;12.882;2022-12-26T15:31:26;15.85;;;14.05;;
52306;SDS011;38249;48.920;12.882;2022-12-26T15:34:06;39.03;;;29.00;;
52306;SDS011;38249;48.920;12.882;2022-12-26T15:36:46;25.05;;;19.98;;
52306;SDS011;38249;48.920;12.882;2022-12-26T15:39:22;19.05;;;14.43;;
52306;SDS011;38249;48.920;12.882;2022-12-26T15:41:55;13.63;;;10.68;;
52306;SDS011;38249;48.920;12.882;2022-12-26T15:44:30;9.55;;;8.50;;
52306;SDS011;38249;48.920;12.882;2022-12-26T15:47:09;10.15;;;8.02;;
52306;SDS011;38249;48.920;12.882;2022-12-26T15:49:54;9.20;;;8.23;;